createdAt,value
2023-03-30T00:01:02.729Z,6.72
2023-03-30T00:03:29.980Z,7.40
2023-03-30T00:06:03.416Z,6.75
2023-03-30T00:08:30.330Z,9.43
2023-03-30T00:11:06.311Z,5.53
2023-03-30T00:13:35.240Z,15.63
2023-03-30T00:16:03.564Z,8.80
2023-03-30T00:18:30.690Z,5.10
2023-03-30T00:20:58.521Z,6.63
2023-03-30T00:23:26.142Z,7.43
2023-03-30T00:25:53.064Z,8.85
2023-03-30T00:28:19.979Z,8.75
2023-03-30T00:30:48.661Z,6.72
2023-03-30T00:33:16.396Z,8.73
2023-03-30T00:35:43.356Z,5.55
2023-03-30T00:38:10.288Z,3.72
2023-03-30T00:40:38.515Z,5.85
2023-03-30T00:43:11.310Z,7.28
2023-03-30T00:45:38.353Z,10.35
2023-03-30T00:48:05.228Z,8.50
2023-03-30T00:50:41.992Z,5.03
2023-03-30T00:53:22.831Z,8.20
2023-03-30T00:55:52.930Z,5.93
2023-03-30T00:58:22.515Z,6.95
2023-03-30T01:00:49.987Z,9.00
2023-03-30T01:03:20.137Z,10.43
2023-03-30T01:05:48.866Z,5.93
2023-03-30T01:08:16.826Z,6.90
2023-03-30T01:10:45.201Z,4.72
2023-03-30T01:13:14.112Z,6.60
2023-03-30T01:15:54.933Z,3.53
2023-03-30T01:18:35.753Z,5.15
2023-03-30T01:21:31.666Z,6.93
2023-03-30T01:24:38.106Z,9.98
2023-03-30T01:27:21.975Z,8.35
2023-03-30T01:30:07.828Z,9.38
2023-03-30T01:32:45.249Z,4.05
2023-03-30T01:35:39.609Z,7.25
2023-03-30T01:38:21.440Z,5.25
2023-03-30T01:41:23.400Z,11.38
2023-03-30T01:44:12.033Z,4.68
2023-03-30T01:46:46.138Z,6.95
2023-03-30T01:49:31.773Z,7.82
2023-03-30T01:52:09.715Z,4.47
2023-03-30T01:54:46.659Z,6.70
2023-03-30T01:57:21.376Z,9.73
2023-03-30T01:59:54.940Z,6.15
2023-03-30T02:02:27.450Z,5.30
2023-03-30T02:04:57.867Z,4.50
2023-03-30T02:07:30.729Z,5.03
2023-03-30T02:10:03.037Z,8.77
2023-03-30T02:12:31.569Z,5.28
2023-03-30T02:15:02.792Z,7.28
2023-03-30T02:17:30.780Z,6.10
2023-03-30T02:19:59.122Z,13.13
2023-03-30T02:22:29.483Z,6.13
2023-03-30T02:24:58.357Z,9.20
2023-03-30T02:27:27.121Z,10.90
2023-03-30T02:29:54.700Z,9.05
2023-03-30T02:32:25.928Z,13.90
2023-03-30T02:35:19.149Z,11.32
2023-03-30T02:37:46.076Z,9.32
2023-03-30T02:40:38.553Z,9.93
2023-03-30T02:43:17.515Z,10.75
2023-03-30T02:46:22.637Z,12.27
2023-03-30T02:49:14.409Z,12.07
2023-03-30T02:52:22.470Z,15.25
2023-03-30T02:54:59.732Z,10.57
2023-03-30T02:58:14.277Z,15.00
2023-03-30T03:01:25.084Z,11.45
2023-03-30T03:03:59.426Z,11.10
2023-03-30T03:06:33.905Z,15.98
2023-03-30T03:09:01.747Z,15.35
2023-03-30T03:11:31.522Z,22.02
2023-03-30T03:13:59.848Z,16.42
2023-03-30T03:16:28.945Z,16.77
2023-03-30T03:19:09.741Z,19.13
2023-03-30T03:21:38.614Z,12.82
2023-03-30T03:24:06.632Z,21.67
2023-03-30T03:26:53.562Z,13.80
2023-03-30T03:29:23.109Z,19.90
2023-03-30T03:31:50.125Z,23.08
2023-03-30T03:34:20.251Z,22.65
2023-03-30T03:37:05.319Z,24.92
2023-03-30T03:39:33.877Z,18.65
2023-03-30T03:42:07.417Z,19.48
2023-03-30T03:44:40.573Z,20.00
2023-03-30T03:47:07.735Z,23.15
2023-03-30T03:49:34.527Z,23.08
2023-03-30T03:52:01.639Z,17.15
2023-03-30T03:54:28.472Z,25.83
2023-03-30T03:56:55.524Z,26.80
2023-03-30T03:59:22.542Z,33.25
2023-03-30T04:01:49.766Z,32.85
2023-03-30T04:04:16.784Z,27.55
2023-03-30T04:06:43.781Z,23.95
2023-03-30T04:09:10.743Z,32.78
2023-03-30T04:12:04.919Z,31.88
2023-03-30T04:14:38.852Z,25.90
2023-03-30T04:17:24.595Z,30.30
2023-03-30T04:20:29.210Z,22.67
2023-03-30T04:23:02.096Z,25.37
2023-03-30T04:25:57.911Z,30.77
2023-03-30T04:28:44.498Z,29.42
2023-03-30T04:31:22.707Z,25.42
2023-03-30T04:34:09.468Z,28.17
2023-03-30T04:36:37.894Z,25.10
2023-03-30T04:42:39.845Z,31.08
2023-03-30T04:45:21.082Z,26.75
2023-03-30T04:48:06.572Z,26.55
2023-03-30T04:50:52.376Z,31.58
2023-03-30T04:53:31.432Z,26.00
2023-03-30T04:56:16.693Z,36.75
2023-03-30T04:58:56.088Z,25.02
2023-03-30T05:01:41.215Z,28.02
2023-03-30T05:04:23.332Z,32.35
2023-03-30T05:07:11.004Z,26.52
2023-03-30T05:09:56.396Z,34.10
2023-03-30T05:12:56.780Z,32.67
2023-03-30T05:15:54.546Z,29.65
2023-03-30T05:18:44.757Z,33.72
2023-03-30T05:21:31.613Z,25.05
2023-03-30T05:24:13.808Z,31.52
2023-03-30T05:26:59.167Z,24.02
2023-03-30T05:29:29.384Z,27.38
2023-03-30T05:32:15.015Z,29.20
2023-03-30T05:35:09.026Z,31.85
2023-03-30T05:37:38.998Z,30.92
2023-03-30T05:40:24.500Z,23.33
2023-03-30T05:43:17.260Z,35.80
2023-03-30T05:45:46.999Z,34.30
2023-03-30T05:48:37.588Z,32.88
2023-03-30T05:51:23.255Z,36.60
2023-03-30T05:54:03.735Z,38.22
2023-03-30T05:56:51.820Z,31.88
2023-03-30T05:59:44.601Z,37.35
2023-03-30T06:02:34.996Z,40.35
2023-03-30T06:05:08.429Z,40.83
2023-03-30T06:07:35.522Z,44.05
2023-03-30T06:10:02.481Z,51.70
2023-03-30T06:12:31.576Z,29.95
2023-03-30T06:14:59.482Z,33.70
2023-03-30T06:17:34.088Z,40.25
2023-03-30T06:20:01.229Z,37.70
2023-03-30T06:22:31.423Z,41.22
2023-03-30T06:25:07.033Z,42.28
2023-03-30T06:27:34.238Z,38.13
2023-03-30T06:30:01.612Z,39.10
2023-03-30T06:32:28.726Z,34.30
2023-03-30T06:35:17.706Z,42.58
2023-03-30T06:37:45.388Z,46.60
2023-03-30T06:40:16.012Z,34.67
2023-03-30T06:42:47.142Z,30.50
2023-03-30T06:45:26.342Z,38.97
2023-03-30T06:47:54.440Z,34.67
2023-03-30T06:50:22.375Z,38.72
2023-03-30T06:53:04.505Z,35.35
2023-03-30T06:55:39.929Z,41.63
2023-03-30T06:58:08.364Z,35.88
2023-03-30T07:00:35.342Z,35.55
2023-03-30T07:03:21.013Z,40.35
2023-03-30T07:05:55.643Z,37.38
2023-03-30T07:08:35.866Z,37.85
2023-03-30T07:11:05.353Z,46.03
2023-03-30T07:13:34.643Z,52.97
2023-03-30T07:16:02.210Z,32.83
2023-03-30T07:18:31.718Z,36.80
2023-03-30T07:20:59.523Z,47.22
2023-03-30T07:23:31.196Z,37.83
2023-03-30T07:25:58.223Z,39.30
2023-03-30T07:28:40.417Z,31.90
2023-03-30T07:31:10.310Z,34.95
2023-03-30T07:33:40.058Z,42.95
2023-03-30T07:36:10.589Z,40.15
2023-03-30T07:38:38.497Z,43.13
2023-03-30T07:41:10.204Z,45.85
2023-03-30T07:43:37.353Z,52.97
2023-03-30T07:46:04.441Z,42.55
2023-03-30T07:48:37.182Z,45.40
2023-03-30T07:51:07.162Z,42.78
2023-03-30T07:53:38.110Z,50.17
2023-03-30T07:56:14.262Z,54.30
2023-03-30T07:58:46.681Z,47.88
2023-03-30T08:01:14.435Z,40.97
2023-03-30T08:04:00.944Z,40.22
2023-03-30T08:06:30.417Z,40.72
2023-03-30T08:08:59.180Z,38.20
2023-03-30T08:11:26.226Z,44.05
2023-03-30T08:13:53.053Z,49.00
2023-03-30T08:16:20.020Z,48.85
2023-03-30T08:18:48.331Z,33.25
2023-03-30T08:21:15.333Z,36.65
2023-03-30T08:23:42.220Z,38.97
2023-03-30T08:26:09.228Z,42.17
2023-03-30T08:28:36.575Z,50.60
2023-03-30T08:31:06.821Z,38.33
2023-03-30T08:33:35.201Z,50.28
2023-03-30T08:36:02.362Z,42.05
2023-03-30T08:38:29.411Z,39.25
2023-03-30T08:40:56.524Z,40.40
2023-03-30T08:43:29.283Z,41.80
2023-03-30T08:46:02.422Z,40.67
2023-03-30T08:48:37.335Z,38.67
2023-03-30T08:51:34.149Z,34.72
2023-03-30T08:54:05.582Z,42.53
2023-03-30T08:56:39.009Z,30.75
2023-03-30T08:59:27.102Z,38.35
2023-03-30T09:02:12.841Z,32.58
2023-03-30T09:04:42.955Z,31.05
2023-03-30T09:07:22.109Z,29.70
2023-03-30T09:09:53.531Z,35.08
2023-03-30T09:12:49.762Z,30.38
2023-03-30T09:15:31.759Z,30.08
2023-03-30T09:18:02.086Z,40.90
2023-03-30T09:20:31.439Z,30.10
2023-03-30T09:23:02.656Z,35.33
2023-03-30T09:25:44.932Z,33.50
2023-03-30T09:28:48.315Z,34.65
2023-03-30T09:31:24.957Z,34.70
2023-03-30T09:33:57.972Z,41.00
2023-03-30T09:36:53.124Z,29.98
2023-03-30T09:39:22.357Z,26.40
2023-03-30T09:42:01.103Z,34.97
2023-03-30T09:44:54.204Z,29.40
2023-03-30T09:47:25.951Z,38.15
2023-03-30T09:49:57.866Z,24.88
2023-03-30T09:52:27.913Z,26.63
2023-03-30T09:54:55.368Z,30.77
2023-03-30T09:57:29.075Z,34.78
2023-03-30T09:59:56.552Z,30.58
2023-03-30T10:02:27.676Z,33.38
2023-03-30T10:05:00.400Z,34.08
2023-03-30T10:07:41.927Z,28.15
2023-03-30T10:10:21.086Z,28.40
2023-03-30T10:12:50.910Z,32.83
2023-03-30T10:15:20.805Z,36.85
2023-03-30T10:17:48.858Z,37.90
2023-03-30T10:20:27.104Z,42.10
2023-03-30T10:23:05.656Z,40.10
2023-03-30T10:25:33.901Z,29.67
2023-03-30T10:28:04.970Z,36.83
2023-03-30T10:30:33.009Z,37.60
2023-03-30T10:33:02.341Z,31.38
2023-03-30T10:35:37.213Z,35.08
2023-03-30T10:38:06.593Z,32.60
2023-03-30T10:40:40.913Z,33.97
2023-03-30T10:43:30.787Z,36.75
2023-03-30T10:46:16.739Z,43.85
2023-03-30T10:49:05.492Z,35.42
2023-03-30T10:51:38.787Z,32.33
2023-03-30T10:54:20.640Z,29.42
2023-03-30T10:57:08.610Z,45.17
2023-03-30T11:00:07.414Z,30.15
2023-03-30T11:02:43.583Z,42.88
2023-03-30T11:05:16.954Z,38.13
2023-03-30T11:07:47.387Z,38.55
2023-03-30T11:10:21.947Z,35.35
2023-03-30T11:13:15.389Z,32.00
2023-03-30T11:15:45.495Z,34.67
2023-03-30T11:18:12.377Z,37.40
2023-03-30T11:21:12.976Z,35.40
2023-03-30T11:23:50.813Z,33.78
2023-03-30T11:26:27.445Z,34.25
2023-03-30T11:28:58.147Z,39.00
2023-03-30T11:31:40.640Z,38.17
2023-03-30T11:34:31.755Z,36.85
2023-03-30T11:37:20.200Z,37.63
2023-03-30T11:39:56.727Z,31.35
2023-03-30T11:42:31.298Z,40.72
2023-03-30T11:44:59.853Z,42.13
2023-03-30T11:47:32.867Z,40.88
2023-03-30T11:50:05.882Z,44.80
2023-03-30T11:52:56.425Z,37.90
2023-03-30T11:55:49.638Z,34.90
2023-03-30T11:58:47.527Z,26.63
2023-03-30T12:01:31.510Z,38.58
2023-03-30T12:04:42.925Z,26.95
2023-03-30T12:07:30.385Z,20.85
2023-03-30T12:10:04.525Z,24.95
2023-03-30T12:12:39.277Z,26.88
2023-03-30T12:15:15.901Z,27.60
2023-03-30T12:18:01.233Z,25.67
2023-03-30T12:20:32.791Z,21.08
2023-03-30T12:23:05.520Z,20.65
2023-03-30T12:25:38.286Z,26.38
2023-03-30T12:28:16.538Z,28.80
2023-03-30T12:30:53.278Z,20.70
2023-03-30T12:33:28.521Z,18.80
2023-03-30T12:35:57.332Z,21.40
2023-03-30T12:38:27.935Z,23.50
2023-03-30T12:41:20.678Z,23.08
2023-03-30T12:44:15.616Z,30.20
2023-03-30T12:46:58.750Z,32.70
2023-03-30T12:49:37.627Z,26.15
2023-03-30T12:52:16.036Z,24.58
2023-03-30T12:54:51.991Z,32.80
2023-03-30T12:57:46.912Z,35.78
2023-03-30T13:00:40.840Z,31.10
2023-03-30T13:03:21.440Z,27.48
2023-03-30T13:05:53.120Z,31.63
2023-03-30T13:08:54.050Z,28.00
2023-03-30T13:11:22.675Z,26.88
2023-03-30T13:14:25.417Z,29.33
2023-03-30T13:16:52.489Z,27.73
2023-03-30T13:19:25.674Z,28.05
2023-03-30T13:22:12.218Z,34.13
2023-03-30T13:24:42.225Z,37.97
2023-03-30T13:27:18.072Z,28.95
2023-03-30T13:30:02.536Z,28.38
2023-03-30T13:32:39.957Z,25.65
2023-03-30T13:35:41.540Z,31.55
2023-03-30T13:38:27.135Z,28.75
2023-03-30T13:41:12.104Z,30.42
2023-03-30T13:44:16.344Z,34.77
2023-03-30T13:46:53.868Z,33.58
2023-03-30T13:49:58.025Z,35.20
2023-03-30T13:52:32.760Z,33.65
2023-03-30T13:55:01.929Z,38.25
2023-03-30T13:57:36.814Z,30.58
2023-03-30T14:00:33.188Z,39.33
2023-03-30T14:05:42.781Z,23.83
2023-03-30T14:08:12.493Z,25.77
2023-03-30T14:10:39.558Z,29.45
2023-03-30T14:13:11.511Z,31.00
2023-03-30T14:15:39.720Z,36.15
2023-03-30T14:18:12.890Z,28.38
2023-03-30T14:20:56.937Z,34.00
2023-03-30T14:23:34.749Z,39.40
2023-03-30T14:26:05.470Z,36.42
2023-03-30T14:28:36.014Z,33.08
2023-03-30T14:31:11.417Z,25.90
2023-03-30T14:36:09.835Z,32.20
2023-03-30T14:38:40.058Z,32.45
2023-03-30T14:41:28.279Z,34.05
2023-03-30T14:44:02.224Z,32.03
2023-03-30T14:46:43.678Z,32.38
2023-03-30T14:49:23.240Z,33.63
2023-03-30T14:51:52.521Z,31.80
2023-03-30T14:54:23.055Z,25.42
2023-03-30T14:56:59.715Z,28.35
2023-03-30T14:59:28.136Z,32.50
2023-03-30T15:01:56.339Z,36.47
2023-03-30T15:04:27.441Z,39.05
2023-03-30T15:06:54.953Z,32.20
2023-03-30T15:09:24.347Z,35.53
2023-03-30T15:11:59.895Z,32.10
2023-03-30T15:16:57.081Z,35.58
2023-03-30T15:19:32.161Z,27.52
2023-03-30T15:22:03.170Z,35.40
2023-03-30T15:24:36.069Z,32.33
2023-03-30T15:27:08.323Z,21.90
2023-03-30T15:29:35.456Z,23.60
2023-03-30T15:32:16.110Z,25.95
2023-03-30T15:35:08.143Z,31.48
2023-03-30T15:37:36.904Z,29.13
2023-03-30T15:40:25.290Z,26.05
2023-03-30T15:43:17.050Z,29.98
2023-03-30T15:46:05.272Z,24.83
2023-03-30T15:48:42.244Z,26.08
2023-03-30T15:51:22.539Z,26.83
2023-03-30T15:53:55.665Z,22.98
2023-03-30T15:56:41.464Z,29.67
2023-03-30T15:59:15.703Z,26.52
2023-03-30T16:01:53.581Z,21.63
2023-03-30T16:04:23.421Z,18.52
2023-03-30T16:06:50.819Z,27.77
2023-03-30T16:09:17.868Z,19.80
2023-03-30T16:11:46.863Z,24.23
2023-03-30T16:14:17.705Z,21.20
2023-03-30T16:16:44.708Z,18.85
2023-03-30T16:19:18.382Z,21.52
2023-03-30T16:21:45.759Z,20.88
2023-03-30T16:24:12.794Z,28.15
2023-03-30T16:26:39.859Z,25.65
2023-03-30T16:29:21.902Z,22.45
2023-03-30T16:31:52.997Z,33.50
2023-03-30T16:34:20.473Z,24.15
2023-03-30T16:36:48.185Z,30.90
2023-03-30T16:39:23.719Z,30.70
2023-03-30T16:44:19.401Z,34.60
2023-03-30T16:46:47.336Z,28.60
2023-03-30T16:49:19.061Z,33.28
2023-03-30T16:51:46.434Z,25.15
2023-03-30T16:54:27.186Z,32.38
2023-03-30T16:56:57.051Z,31.48
2023-03-30T16:59:29.314Z,33.05
2023-03-30T17:01:56.954Z,42.60
2023-03-30T17:04:23.832Z,34.15
2023-03-30T17:06:51.095Z,30.73
2023-03-30T17:09:19.615Z,31.50
2023-03-30T17:11:48.243Z,27.17
2023-03-30T17:14:16.286Z,32.08
2023-03-30T17:16:43.299Z,31.45
2023-03-30T17:19:12.820Z,25.95
2023-03-30T17:21:43.874Z,28.27
2023-03-30T17:24:12.844Z,30.65
2023-03-30T17:26:40.604Z,26.80
2023-03-30T17:29:07.565Z,29.05
2023-03-30T17:31:34.467Z,43.33
2023-03-30T17:34:01.481Z,35.70
2023-03-30T17:36:29.158Z,21.55
2023-03-30T17:38:56.623Z,27.35
2023-03-30T17:41:23.656Z,21.02
2023-03-30T17:43:51.607Z,25.58
2023-03-30T17:46:19.826Z,30.75
2023-03-30T17:48:47.292Z,27.15
2023-03-30T17:51:14.172Z,28.50
2023-03-30T17:53:41.089Z,25.95
2023-03-30T17:56:11.662Z,27.98
2023-03-30T17:58:38.961Z,28.23
2023-03-30T18:01:08.607Z,29.30
2023-03-30T18:03:38.516Z,28.45
2023-03-30T18:06:06.422Z,32.08
2023-03-30T18:08:33.484Z,30.75
2023-03-30T18:11:01.475Z,26.05
2023-03-30T18:13:29.728Z,27.00
2023-03-30T18:15:58.548Z,24.23
2023-03-30T18:18:28.671Z,28.33
2023-03-30T18:20:57.437Z,28.65
2023-03-30T18:23:24.371Z,35.80
2023-03-30T18:25:51.611Z,38.20
2023-03-30T18:28:21.320Z,36.40
2023-03-30T18:30:48.943Z,34.67
2023-03-30T18:33:18.838Z,34.42
2023-03-30T18:35:48.256Z,33.28
2023-03-30T18:38:18.056Z,34.65
2023-03-30T18:40:49.461Z,38.42
2023-03-30T18:43:17.389Z,36.75
2023-03-30T18:45:51.194Z,37.42
2023-03-30T18:48:21.594Z,35.55
2023-03-30T18:50:56.297Z,36.88
2023-03-30T18:53:25.691Z,35.77
2023-03-30T18:55:57.060Z,33.00
2023-03-30T18:58:29.798Z,36.47
2023-03-30T19:00:57.355Z,28.67
2023-03-30T19:03:27.282Z,33.70
2023-03-30T19:05:54.676Z,33.45
2023-03-30T19:08:23.758Z,31.88
2023-03-30T19:10:52.820Z,38.45
2023-03-30T19:13:21.060Z,32.03
2023-03-30T19:15:49.580Z,30.23
2023-03-30T19:18:18.294Z,30.00
2023-03-30T19:20:45.902Z,33.90
2023-03-30T19:23:14.818Z,41.95
2023-03-30T19:25:43.780Z,37.83
2023-03-30T19:28:11.763Z,36.13
2023-03-30T19:30:40.140Z,31.23
2023-03-30T19:33:11.895Z,38.10
2023-03-30T19:35:46.518Z,40.13
2023-03-30T19:38:15.337Z,32.53
2023-03-30T19:40:42.861Z,37.88
2023-03-30T19:43:10.360Z,38.22
2023-03-30T19:45:37.386Z,31.60
2023-03-30T19:48:04.561Z,42.83
2023-03-30T19:50:31.775Z,34.97
2023-03-30T19:52:59.364Z,38.20
2023-03-30T19:55:27.010Z,31.98
2023-03-30T19:57:54.082Z,36.10
2023-03-30T20:00:21.269Z,30.15
2023-03-30T20:02:53.872Z,36.35
2023-03-30T20:05:22.894Z,33.58
2023-03-30T20:07:50.526Z,33.00
2023-03-30T20:10:23.908Z,34.20
2023-03-30T20:12:52.388Z,29.35
2023-03-30T20:15:20.490Z,37.13
2023-03-30T20:17:47.466Z,40.53
2023-03-30T20:20:17.056Z,36.53
2023-03-30T20:22:44.705Z,32.33
2023-03-30T20:25:14.222Z,39.00
2023-03-30T20:27:41.544Z,35.15
2023-03-30T20:30:09.839Z,29.80
2023-03-30T20:32:36.969Z,35.30
2023-03-30T20:35:05.166Z,33.35
2023-03-30T20:37:32.177Z,29.33
2023-03-30T20:40:03.719Z,40.67
2023-03-30T20:42:32.408Z,33.92
2023-03-30T20:45:00.812Z,34.42
2023-03-30T20:47:30.948Z,28.80
2023-03-30T20:49:59.068Z,34.72
2023-03-30T20:52:26.786Z,35.97
2023-03-30T20:54:54.342Z,39.90
2023-03-30T20:57:22.890Z,34.30
2023-03-30T20:59:52.640Z,31.50
2023-03-30T21:02:20.049Z,31.77
2023-03-30T21:04:47.380Z,32.83
2023-03-30T21:07:16.356Z,32.13
2023-03-30T21:09:43.649Z,33.42
2023-03-30T21:12:11.005Z,25.65
2023-03-30T21:14:38.007Z,37.50
2023-03-30T21:17:04.954Z,29.25
2023-03-30T21:19:32.001Z,35.40
2023-03-30T21:22:01.072Z,34.65
2023-03-30T21:24:28.490Z,29.75
2023-03-30T21:26:55.510Z,32.05
2023-03-30T21:29:23.271Z,29.58
2023-03-30T21:31:50.200Z,25.73
2023-03-30T21:34:18.726Z,27.10
2023-03-30T21:36:46.190Z,29.52
2023-03-30T21:39:13.557Z,35.30
2023-03-30T21:41:40.451Z,24.90
2023-03-30T21:44:08.057Z,25.67
2023-03-30T21:46:35.034Z,25.10
2023-03-30T21:49:02.040Z,24.30
2023-03-30T21:51:31.552Z,30.88
2023-03-30T21:53:59.201Z,31.27
2023-03-30T21:56:29.076Z,20.13
2023-03-30T21:58:56.534Z,20.27
2023-03-30T22:01:24.331Z,23.00
2023-03-30T22:03:52.508Z,15.75
2023-03-30T22:06:20.542Z,22.27
2023-03-30T22:08:47.674Z,20.33
2023-03-30T22:11:20.659Z,24.65
2023-03-30T22:13:48.942Z,19.25
2023-03-30T22:16:35.039Z,16.73
2023-03-30T22:19:02.953Z,17.92
2023-03-30T22:21:34.459Z,19.17
2023-03-30T22:24:03.803Z,17.23
2023-03-30T22:26:30.819Z,19.05
2023-03-30T22:28:57.807Z,17.20
2023-03-30T22:31:25.234Z,18.70
2023-03-30T22:33:53.603Z,15.32
2023-03-30T22:36:26.794Z,12.45
2023-03-30T22:38:55.934Z,13.68
2023-03-30T22:41:26.845Z,13.35
2023-03-30T22:43:56.632Z,13.27
2023-03-30T22:46:24.826Z,15.07
2023-03-30T22:48:52.743Z,15.00
2023-03-30T22:51:26.417Z,13.95
2023-03-30T22:53:58.550Z,13.25
2023-03-30T22:56:27.315Z,10.82
2023-03-30T22:58:54.470Z,14.00
2023-03-30T23:01:21.583Z,9.73
2023-03-30T23:03:48.696Z,19.23
2023-03-30T23:06:18.859Z,17.63
2023-03-30T23:08:48.572Z,19.02
2023-03-30T23:11:16.064Z,13.98
2023-03-30T23:13:42.959Z,13.50
2023-03-30T23:16:10.591Z,12.30
2023-03-30T23:18:38.308Z,18.58
2023-03-30T23:21:11.005Z,21.30
2023-03-30T23:23:38.513Z,21.23
2023-03-30T23:26:08.990Z,14.98
2023-03-30T23:28:42.880Z,18.35
2023-03-30T23:31:14.792Z,20.42
2023-03-30T23:33:42.795Z,17.45
2023-03-30T23:36:13.639Z,20.38
2023-03-30T23:38:41.441Z,22.58
2023-03-30T23:41:08.927Z,17.20
2023-03-30T23:43:35.837Z,21.08
2023-03-30T23:46:02.828Z,27.90
2023-03-30T23:48:30.119Z,18.05
2023-03-30T23:50:58.018Z,23.95
2023-03-30T23:53:26.432Z,23.45
2023-03-30T23:55:54.377Z,19.90
2023-03-30T23:58:21.446Z,20.73
